Nearby METAR Reports

 

KRDU - Raleigh-Durham, NC, USA
Distance from station: NE 9mi, 14km
Updated: Sat, 27-Nov-2021 8:51am EST
Few Clouds
Few Clouds
 Wind from varies
Wind: varies 6 mph , 9 km/h
Temperature: 37°F , 3°C
Wind Chill: 32°F , 0°C
Dew Point: 19°F , -7°C
Humidity: 48%
Barometer: 1020.7 hPa
Clouds: Few Clouds
Visibility: 10 miles , 16 km
Cloud details: Few Clouds 20000 ft
2021/11/27 13:51 KRDU 271351Z VRB05KT 10SM FEW200 03/M07 A3014 RMK AO2 SLP208 T00281072
KLHZ - Louisburg, NC, USA
Distance from station: N 9mi, 14km
Updated: Sat, 27-Nov-2021 9:15am EST
Clear
Clear
 Wind from NW
Wind: NW 7 mph , 11 km/h
Temperature: 36°F , 2°C
Wind Chill: 30°F , -1°C
Dew Point: 19°F , -7°C
Humidity: 52%
Barometer: 1021 hPa
Clouds: Clear
Visibility: 10 miles , 16 km
2021/11/27 14:15 KLHZ 271415Z AUTO 32006KT 10SM CLR 02/M07 A3015 RMK AO2
 
KJNX - Smithfield, NC, USA
Distance from station: NNW 14mi, 23km
Updated: Sat, 27-Nov-2021 9:15am EST
Clear
Clear
 Wind from NNW
Wind: NNW 3 mph , 6 km/h
Temperature: 39°F , 4°C
Dew Point: 23°F , -5°C
Humidity: 52%
Barometer: 1021.3 hPa
Clouds: Clear
Visibility: 10 miles , 16 km
2021/11/27 14:15 KJNX 271415Z AUTO 33003KT 10SM CLR 04/M05 A3016 RMK AO2
KHRJ - Erwin, NC, USA
Distance from station: ENE 12mi, 19km
Updated: Sat, 27-Nov-2021 9:15am EST
Clear
Clear
 Wind from N
Wind: N 5 mph , 7 km/h
Temperature: 41°F , 5°C
Wind Chill: 38°F , 3°C
Dew Point: 23°F , -5°C
Humidity: 49%
Barometer: 1021 hPa
Clouds: Clear
Visibility: 10 miles , 16 km
2021/11/27 14:15 KHRJ 271415Z AUTO 35004KT 10SM CLR 05/M05 A3015 RMK AO2 T00471052
 
KTTA - Sanford, NC, USA
Distance from station: NNW 31mi, 50km
Updated: Sat, 27-Nov-2021 9:15am EST
Clear
Clear
 Wind from calm
Wind: Calm
Temperature: 37°F , 3°C
Dew Point: 21°F , -6°C
Humidity: 52%
Barometer: 1020.7 hPa
Clouds: Clear
Visibility: 10 miles , 16 km
2021/11/27 14:15 KTTA 271415Z AUTO 00000KT 10SM CLR 03/M06 A3014 RMK AO2 T00311058
KSCR - Siler City, NC, USA
Distance from station: NW 21mi, 34km
Updated: Tue, 23-Nov-2021 8:35am EST
NOT Current
Clear
Clear
 Wind from NNW
Wind: NNW 6 mph , 9 km/h
Temperature: 36°F , 2°C
Wind Chill: 31°F , -1°C
Dew Point: 18°F , -8°C
Humidity: 48%
Barometer: 1022.7 hPa
Clouds: Clear
Visibility: 10 miles , 16 km
2021/11/23 13:35 KSCR 231335Z AUTO 33005KT 10SM CLR 02/M08 A3020 RMK AO2 T00201077